sensor_id;sensor_type;location;lat;lon;timestamp;P1;durP1;ratioP1;P2;durP2;ratioP2
47519;SDS011;33252;48.122;11.538;2023-02-28T00:00:27;4.55;;;2.58;;
47519;SDS011;33252;48.122;11.538;2023-02-28T00:02:52;4.35;;;2.70;;
47519;SDS011;33252;48.122;11.538;2023-02-28T00:05:19;5.90;;;2.95;;
47519;SDS011;33252;48.122;11.538;2023-02-28T00:07:47;5.53;;;2.67;;
47519;SDS011;33252;48.122;11.538;2023-02-28T00:10:15;4.65;;;2.47;;
47519;SDS011;33252;48.122;11.538;2023-02-28T00:12:49;5.05;;;2.83;;
47519;SDS011;33252;48.122;11.538;2023-02-28T00:15:15;10.43;;;3.22;;
47519;SDS011;33252;48.122;11.538;2023-02-28T00:17:41;5.57;;;3.00;;
47519;SDS011;33252;48.122;11.538;2023-02-28T00:20:07;7.50;;;3.33;;
47519;SDS011;33252;48.122;11.538;2023-02-28T00:22:38;5.43;;;2.75;;
47519;SDS011;33252;48.122;11.538;2023-02-28T00:25:05;5.95;;;3.65;;
47519;SDS011;33252;48.122;11.538;2023-02-28T00:27:34;5.18;;;3.00;;
47519;SDS011;33252;48.122;11.538;2023-02-28T00:30:01;3.17;;;2.47;;
47519;SDS011;33252;48.122;11.538;2023-02-28T00:32:26;5.18;;;2.75;;
47519;SDS011;33252;48.122;11.538;2023-02-28T00:34:52;5.18;;;2.83;;
47519;SDS011;33252;48.122;11.538;2023-02-28T00:37:18;4.45;;;2.95;;
47519;SDS011;33252;48.122;11.538;2023-02-28T00:39:43;5.63;;;3.22;;
47519;SDS011;33252;48.122;11.538;2023-02-28T00:42:09;6.10;;;3.08;;
47519;SDS011;33252;48.122;11.538;2023-02-28T00:44:35;5.97;;;3.05;;
47519;SDS011;33252;48.122;11.538;2023-02-28T00:47:00;8.30;;;3.40;;
47519;SDS011;33252;48.122;11.538;2023-02-28T00:49:26;5.63;;;3.03;;
47519;SDS011;33252;48.122;11.538;2023-02-28T00:51:53;10.80;;;3.35;;
47519;SDS011;33252;48.122;11.538;2023-02-28T00:54:19;4.55;;;2.50;;
47519;SDS011;33252;48.122;11.538;2023-02-28T00:56:46;6.30;;;3.30;;
47519;SDS011;33252;48.122;11.538;2023-02-28T00:59:15;7.25;;;3.03;;
47519;SDS011;33252;48.122;11.538;2023-02-28T01:01:42;6.07;;;3.28;;
47519;SDS011;33252;48.122;11.538;2023-02-28T01:04:12;5.68;;;3.72;;
47519;SDS011;33252;48.122;11.538;2023-02-28T01:06:38;6.50;;;3.50;;
47519;SDS011;33252;48.122;11.538;2023-02-28T01:09:05;5.22;;;3.20;;
47519;SDS011;33252;48.122;11.538;2023-02-28T01:11:32;4.63;;;2.70;;
47519;SDS011;33252;48.122;11.538;2023-02-28T01:13:58;11.70;;;4.20;;
47519;SDS011;33252;48.122;11.538;2023-02-28T01:16:25;12.70;;;4.80;;
47519;SDS011;33252;48.122;11.538;2023-02-28T01:18:51;4.78;;;3.25;;
47519;SDS011;33252;48.122;11.538;2023-02-28T01:21:17;5.18;;;2.85;;
47519;SDS011;33252;48.122;11.538;2023-02-28T01:23:44;5.38;;;3.15;;
47519;SDS011;33252;48.122;11.538;2023-02-28T01:26:11;4.45;;;3.42;;
47519;SDS011;33252;48.122;11.538;2023-02-28T01:28:39;7.05;;;3.67;;
47519;SDS011;33252;48.122;11.538;2023-02-28T01:31:05;6.72;;;3.50;;
47519;SDS011;33252;48.122;11.538;2023-02-28T01:33:31;6.97;;;4.15;;
47519;SDS011;33252;48.122;11.538;2023-02-28T01:35:58;7.85;;;3.38;;
47519;SDS011;33252;48.122;11.538;2023-02-28T01:38:24;9.57;;;3.35;;
47519;SDS011;33252;48.122;11.538;2023-02-28T01:40:50;5.28;;;3.33;;
47519;SDS011;33252;48.122;11.538;2023-02-28T01:43:19;7.03;;;3.92;;
47519;SDS011;33252;48.122;11.538;2023-02-28T01:45:51;7.53;;;3.42;;
47519;SDS011;33252;48.122;11.538;2023-02-28T01:48:19;4.78;;;3.28;;
47519;SDS011;33252;48.122;11.538;2023-02-28T01:50:49;7.00;;;3.47;;
47519;SDS011;33252;48.122;11.538;2023-02-28T01:53:16;6.53;;;3.47;;
47519;SDS011;33252;48.122;11.538;2023-02-28T01:55:47;8.43;;;3.20;;
47519;SDS011;33252;48.122;11.538;2023-02-28T01:58:15;7.97;;;3.17;;
47519;SDS011;33252;48.122;11.538;2023-02-28T02:00:41;4.55;;;2.92;;
47519;SDS011;33252;48.122;11.538;2023-02-28T02:03:12;5.70;;;3.33;;
47519;SDS011;33252;48.122;11.538;2023-02-28T02:05:40;8.32;;;3.88;;
47519;SDS011;33252;48.122;11.538;2023-02-28T02:08:08;7.55;;;3.85;;
47519;SDS011;33252;48.122;11.538;2023-02-28T02:10:42;7.15;;;3.78;;
47519;SDS011;33252;48.122;11.538;2023-02-28T02:18:40;7.40;;;4.35;;
47519;SDS011;33252;48.122;11.538;2023-02-28T02:25:00;5.68;;;3.50;;
47519;SDS011;33252;48.122;11.538;2023-02-28T02:30:37;4.88;;;3.30;;
47519;SDS011;33252;48.122;11.538;2023-02-28T02:38:20;5.60;;;3.53;;
47519;SDS011;33252;48.122;11.538;2023-02-28T02:41:24;6.60;;;4.13;;
47519;SDS011;33252;48.122;11.538;2023-02-28T02:44:13;7.22;;;3.67;;
47519;SDS011;33252;48.122;11.538;2023-02-28T02:46:49;6.85;;;3.72;;
47519;SDS011;33252;48.122;11.538;2023-02-28T02:49:24;6.97;;;4.13;;
47519;SDS011;33252;48.122;11.538;2023-02-28T02:51:55;6.25;;;3.88;;
47519;SDS011;33252;48.122;11.538;2023-02-28T02:54:27;7.07;;;4.07;;
47519;SDS011;33252;48.122;11.538;2023-02-28T02:56:58;7.28;;;4.28;;
47519;SDS011;33252;48.122;11.538;2023-02-28T02:59:26;6.32;;;3.95;;
47519;SDS011;33252;48.122;11.538;2023-02-28T03:01:56;6.10;;;3.80;;
47519;SDS011;33252;48.122;11.538;2023-02-28T03:04:30;8.07;;;5.28;;
47519;SDS011;33252;48.122;11.538;2023-02-28T03:06:59;6.32;;;3.72;;
47519;SDS011;33252;48.122;11.538;2023-02-28T03:09:25;8.05;;;4.07;;
47519;SDS011;33252;48.122;11.538;2023-02-28T03:11:52;8.60;;;4.07;;
47519;SDS011;33252;48.122;11.538;2023-02-28T03:14:24;7.05;;;3.83;;
47519;SDS011;33252;48.122;11.538;2023-02-28T03:22:43;5.93;;;4.03;;
47519;SDS011;33252;48.122;11.538;2023-02-28T03:25:31;8.77;;;4.13;;
47519;SDS011;33252;48.122;11.538;2023-02-28T03:34:17;7.03;;;4.05;;
47519;SDS011;33252;48.122;11.538;2023-02-28T03:36:27;7.68;;;4.35;;
47519;SDS011;33252;48.122;11.538;2023-02-28T03:38:58;7.72;;;4.53;;
47519;SDS011;33252;48.122;11.538;2023-02-28T03:41:42;6.75;;;4.57;;
47519;SDS011;33252;48.122;11.538;2023-02-28T03:45:00;7.85;;;4.63;;
47519;SDS011;33252;48.122;11.538;2023-02-28T03:47:07;9.10;;;4.72;;
47519;SDS011;33252;48.122;11.538;2023-02-28T03:49:53;7.40;;;3.83;;
47519;SDS011;33252;48.122;11.538;2023-02-28T03:52:31;8.75;;;4.32;;
47519;SDS011;33252;48.122;11.538;2023-02-28T03:55:04;8.77;;;4.88;;
47519;SDS011;33252;48.122;11.538;2023-02-28T04:00:20;9.20;;;4.72;;
47519;SDS011;33252;48.122;11.538;2023-02-28T04:02:53;9.27;;;4.88;;
47519;SDS011;33252;48.122;11.538;2023-02-28T04:05:20;11.40;;;5.43;;
47519;SDS011;33252;48.122;11.538;2023-02-28T04:07:46;9.57;;;5.25;;
47519;SDS011;33252;48.122;11.538;2023-02-28T04:10:13;9.70;;;5.18;;
47519;SDS011;33252;48.122;11.538;2023-02-28T04:12:39;8.32;;;4.90;;
47519;SDS011;33252;48.122;11.538;2023-02-28T04:15:05;11.82;;;6.18;;
47519;SDS011;33252;48.122;11.538;2023-02-28T04:17:31;12.60;;;6.18;;
47519;SDS011;33252;48.122;11.538;2023-02-28T04:19:57;9.77;;;5.32;;
47519;SDS011;33252;48.122;11.538;2023-02-28T04:22:23;11.18;;;5.88;;
47519;SDS011;33252;48.122;11.538;2023-02-28T04:24:51;10.60;;;6.03;;
47519;SDS011;33252;48.122;11.538;2023-02-28T04:27:18;10.32;;;5.57;;
47519;SDS011;33252;48.122;11.538;2023-02-28T04:29:45;13.20;;;6.35;;
47519;SDS011;33252;48.122;11.538;2023-02-28T04:32:10;11.65;;;5.90;;
47519;SDS011;33252;48.122;11.538;2023-02-28T04:34:36;10.40;;;6.00;;
47519;SDS011;33252;48.122;11.538;2023-02-28T04:37:02;12.07;;;5.72;;
47519;SDS011;33252;48.122;11.538;2023-02-28T04:39:28;13.63;;;6.47;;
47519;SDS011;33252;48.122;11.538;2023-02-28T04:41:54;13.38;;;6.50;;
47519;SDS011;33252;48.122;11.538;2023-02-28T04:44:20;14.13;;;6.78;;
47519;SDS011;33252;48.122;11.538;2023-02-28T04:46:47;11.02;;;6.80;;
47519;SDS011;33252;48.122;11.538;2023-02-28T04:49:13;12.00;;;7.07;;
47519;SDS011;33252;48.122;11.538;2023-02-28T04:51:40;14.73;;;6.68;;
47519;SDS011;33252;48.122;11.538;2023-02-28T04:54:06;15.43;;;8.13;;
47519;SDS011;33252;48.122;11.538;2023-02-28T04:56:32;12.68;;;7.45;;
47519;SDS011;33252;48.122;11.538;2023-02-28T04:58:58;11.13;;;6.90;;
47519;SDS011;33252;48.122;11.538;2023-02-28T05:03:50;12.43;;;7.03;;
47519;SDS011;33252;48.122;11.538;2023-02-28T05:06:17;14.40;;;8.60;;
47519;SDS011;33252;48.122;11.538;2023-02-28T05:08:43;15.63;;;7.38;;
47519;SDS011;33252;48.122;11.538;2023-02-28T05:11:19;15.07;;;7.65;;
47519;SDS011;33252;48.122;11.538;2023-02-28T05:13:49;15.43;;;7.95;;
47519;SDS011;33252;48.122;11.538;2023-02-28T05:16:15;17.65;;;7.65;;
47519;SDS011;33252;48.122;11.538;2023-02-28T05:18:41;14.50;;;8.65;;
47519;SDS011;33252;48.122;11.538;2023-02-28T05:21:17;13.75;;;8.20;;
47519;SDS011;33252;48.122;11.538;2023-02-28T05:23:49;16.08;;;9.10;;
47519;SDS011;33252;48.122;11.538;2023-02-28T05:26:15;17.27;;;8.65;;
47519;SDS011;33252;48.122;11.538;2023-02-28T05:28:41;16.67;;;8.48;;
47519;SDS011;33252;48.122;11.538;2023-02-28T05:31:07;13.88;;;7.95;;
47519;SDS011;33252;48.122;11.538;2023-02-28T05:33:35;17.73;;;9.07;;
47519;SDS011;33252;48.122;11.538;2023-02-28T05:36:01;15.50;;;9.68;;
47519;SDS011;33252;48.122;11.538;2023-02-28T05:38:27;15.07;;;8.90;;
47519;SDS011;33252;48.122;11.538;2023-02-28T05:40:52;20.45;;;10.10;;
47519;SDS011;33252;48.122;11.538;2023-02-28T05:43:18;20.00;;;8.93;;
47519;SDS011;33252;48.122;11.538;2023-02-28T05:45:44;17.77;;;10.40;;
47519;SDS011;33252;48.122;11.538;2023-02-28T05:48:09;16.27;;;8.20;;
47519;SDS011;33252;48.122;11.538;2023-02-28T05:50:35;17.08;;;8.77;;
47519;SDS011;33252;48.122;11.538;2023-02-28T05:53:01;14.13;;;8.63;;
47519;SDS011;33252;48.122;11.538;2023-02-28T05:55:27;15.25;;;10.10;;
47519;SDS011;33252;48.122;11.538;2023-02-28T05:57:53;20.77;;;10.73;;
47519;SDS011;33252;48.122;11.538;2023-02-28T06:00:19;19.25;;;10.48;;
47519;SDS011;33252;48.122;11.538;2023-02-28T06:02:45;22.60;;;11.63;;
47519;SDS011;33252;48.122;11.538;2023-02-28T06:05:12;18.20;;;10.32;;
47519;SDS011;33252;48.122;11.538;2023-02-28T06:07:40;18.00;;;10.07;;
47519;SDS011;33252;48.122;11.538;2023-02-28T06:10:05;21.67;;;10.73;;
47519;SDS011;33252;48.122;11.538;2023-02-28T06:12:31;15.52;;;10.32;;
47519;SDS011;33252;48.122;11.538;2023-02-28T06:14:57;18.67;;;11.07;;
47519;SDS011;33252;48.122;11.538;2023-02-28T06:17:23;22.23;;;12.40;;
47519;SDS011;33252;48.122;11.538;2023-02-28T06:19:48;20.80;;;11.80;;
47519;SDS011;33252;48.122;11.538;2023-02-28T06:22:14;20.00;;;11.23;;
47519;SDS011;33252;48.122;11.538;2023-02-28T06:24:39;22.08;;;12.00;;
47519;SDS011;33252;48.122;11.538;2023-02-28T06:27:05;24.27;;;11.77;;
47519;SDS011;33252;48.122;11.538;2023-02-28T06:29:31;24.98;;;12.70;;
47519;SDS011;33252;48.122;11.538;2023-02-28T06:31:58;24.15;;;12.02;;
47519;SDS011;33252;48.122;11.538;2023-02-28T06:34:23;21.00;;;12.00;;
47519;SDS011;33252;48.122;11.538;2023-02-28T06:36:50;21.05;;;12.63;;
47519;SDS011;33252;48.122;11.538;2023-02-28T06:39:16;22.70;;;12.20;;
47519;SDS011;33252;48.122;11.538;2023-02-28T06:41:42;23.83;;;12.30;;
47519;SDS011;33252;48.122;11.538;2023-02-28T06:44:19;19.38;;;11.90;;
47519;SDS011;33252;48.122;11.538;2023-02-28T06:46:45;22.30;;;13.10;;
47519;SDS011;33252;48.122;11.538;2023-02-28T06:49:11;22.67;;;12.45;;
47519;SDS011;33252;48.122;11.538;2023-02-28T06:51:38;19.92;;;12.57;;
47519;SDS011;33252;48.122;11.538;2023-02-28T06:54:04;21.77;;;12.15;;
47519;SDS011;33252;48.122;11.538;2023-02-28T06:56:30;23.45;;;13.13;;
47519;SDS011;33252;48.122;11.538;2023-02-28T06:58:56;22.27;;;14.05;;
47519;SDS011;33252;48.122;11.538;2023-02-28T07:01:22;19.05;;;11.63;;
47519;SDS011;33252;48.122;11.538;2023-02-28T07:03:49;20.00;;;12.20;;
47519;SDS011;33252;48.122;11.538;2023-02-28T07:06:17;21.67;;;12.25;;
47519;SDS011;33252;48.122;11.538;2023-02-28T07:08:44;22.80;;;12.65;;
47519;SDS011;33252;48.122;11.538;2023-02-28T07:11:10;19.85;;;12.60;;
47519;SDS011;33252;48.122;11.538;2023-02-28T07:13:36;20.70;;;12.05;;
47519;SDS011;33252;48.122;11.538;2023-02-28T07:16:03;25.48;;;13.27;;
47519;SDS011;33252;48.122;11.538;2023-02-28T07:18:30;22.58;;;12.60;;
47519;SDS011;33252;48.122;11.538;2023-02-28T07:20:56;21.40;;;11.85;;
47519;SDS011;33252;48.122;11.538;2023-02-28T07:23:23;19.48;;;12.10;;
47519;SDS011;33252;48.122;11.538;2023-02-28T07:25:49;22.67;;;12.73;;
47519;SDS011;33252;48.122;11.538;2023-02-28T07:28:15;23.90;;;12.32;;
47519;SDS011;33252;48.122;11.538;2023-02-28T07:30:41;23.38;;;11.68;;
47519;SDS011;33252;48.122;11.538;2023-02-28T07:33:07;20.15;;;12.43;;
47519;SDS011;33252;48.122;11.538;2023-02-28T07:35:33;25.00;;;13.30;;
47519;SDS011;33252;48.122;11.538;2023-02-28T07:37:59;21.55;;;11.55;;
47519;SDS011;33252;48.122;11.538;2023-02-28T07:40:25;19.38;;;12.07;;
47519;SDS011;33252;48.122;11.538;2023-02-28T07:42:51;23.45;;;13.07;;
47519;SDS011;33252;48.122;11.538;2023-02-28T07:45:17;20.67;;;12.23;;
47519;SDS011;33252;48.122;11.538;2023-02-28T07:47:44;23.17;;;13.40;;
47519;SDS011;33252;48.122;11.538;2023-02-28T07:50:11;24.67;;;14.15;;
47519;SDS011;33252;48.122;11.538;2023-02-28T07:52:38;23.55;;;13.38;;
47519;SDS011;33252;48.122;11.538;2023-02-28T07:55:05;22.05;;;12.93;;
47519;SDS011;33252;48.122;11.538;2023-02-28T07:57:32;22.40;;;13.10;;
47519;SDS011;33252;48.122;11.538;2023-02-28T07:59:57;25.88;;;13.98;;
47519;SDS011;33252;48.122;11.538;2023-02-28T08:02:23;26.30;;;14.35;;
47519;SDS011;33252;48.122;11.538;2023-02-28T08:04:49;24.50;;;13.23;;
47519;SDS011;33252;48.122;11.538;2023-02-28T08:07:16;23.35;;;13.75;;
47519;SDS011;33252;48.122;11.538;2023-02-28T08:09:42;20.52;;;13.57;;
47519;SDS011;33252;48.122;11.538;2023-02-28T08:12:08;24.13;;;14.07;;
47519;SDS011;33252;48.122;11.538;2023-02-28T08:14:35;23.40;;;13.88;;
47519;SDS011;33252;48.122;11.538;2023-02-28T08:17:02;23.40;;;14.15;;
47519;SDS011;33252;48.122;11.538;2023-02-28T08:19:28;22.30;;;13.95;;
47519;SDS011;33252;48.122;11.538;2023-02-28T08:21:54;23.27;;;13.68;;
47519;SDS011;33252;48.122;11.538;2023-02-28T08:24:20;23.40;;;13.57;;
47519;SDS011;33252;48.122;11.538;2023-02-28T08:26:46;21.65;;;12.48;;
47519;SDS011;33252;48.122;11.538;2023-02-28T08:29:12;23.75;;;14.02;;
47519;SDS011;33252;48.122;11.538;2023-02-28T08:31:37;26.25;;;15.63;;
47519;SDS011;33252;48.122;11.538;2023-02-28T08:34:06;23.20;;;13.27;;
47519;SDS011;33252;48.122;11.538;2023-02-28T08:36:33;22.08;;;13.55;;
47519;SDS011;33252;48.122;11.538;2023-02-28T08:38:59;22.25;;;13.18;;
47519;SDS011;33252;48.122;11.538;2023-02-28T08:41:25;24.20;;;12.68;;
47519;SDS011;33252;48.122;11.538;2023-02-28T08:43:51;23.73;;;14.80;;
47519;SDS011;33252;48.122;11.538;2023-02-28T08:46:18;22.10;;;13.43;;
47519;SDS011;33252;48.122;11.538;2023-02-28T08:48:44;27.10;;;13.93;;
47519;SDS011;33252;48.122;11.538;2023-02-28T08:51:12;23.92;;;13.57;;
47519;SDS011;33252;48.122;11.538;2023-02-28T08:53:41;23.70;;;13.05;;
47519;SDS011;33252;48.122;11.538;2023-02-28T08:56:07;28.48;;;14.02;;
47519;SDS011;33252;48.122;11.538;2023-02-28T08:58:35;24.10;;;14.32;;
47519;SDS011;33252;48.122;11.538;2023-02-28T09:01:07;21.08;;;13.02;;
47519;SDS011;33252;48.122;11.538;2023-02-28T09:03:40;20.67;;;13.20;;
47519;SDS011;33252;48.122;11.538;2023-02-28T09:06:11;22.92;;;13.73;;
47519;SDS011;33252;48.122;11.538;2023-02-28T09:08:37;21.77;;;13.63;;
47519;SDS011;33252;48.122;11.538;2023-02-28T09:11:03;21.10;;;13.20;;
47519;SDS011;33252;48.122;11.538;2023-02-28T09:13:30;24.90;;;13.68;;
47519;SDS011;33252;48.122;11.538;2023-02-28T09:15:57;23.27;;;14.35;;
47519;SDS011;33252;48.122;11.538;2023-02-28T09:18:24;19.70;;;11.98;;
47519;SDS011;33252;48.122;11.538;2023-02-28T09:20:50;22.90;;;14.00;;
47519;SDS011;33252;48.122;11.538;2023-02-28T09:23:16;21.63;;;13.65;;
47519;SDS011;33252;48.122;11.538;2023-02-28T09:25:48;24.20;;;13.68;;
47519;SDS011;33252;48.122;11.538;2023-02-28T09:28:16;24.50;;;14.23;;
47519;SDS011;33252;48.122;11.538;2023-02-28T09:30:44;25.50;;;13.00;;
47519;SDS011;33252;48.122;11.538;2023-02-28T09:33:10;21.75;;;13.18;;
47519;SDS011;33252;48.122;11.538;2023-02-28T09:35:38;25.63;;;14.48;;
47519;SDS011;33252;48.122;11.538;2023-02-28T09:38:04;21.15;;;13.88;;
47519;SDS011;33252;48.122;11.538;2023-02-28T09:40:29;17.95;;;12.73;;
47519;SDS011;33252;48.122;11.538;2023-02-28T09:42:56;23.65;;;14.43;;
47519;SDS011;33252;48.122;11.538;2023-02-28T09:45:27;23.23;;;14.68;;
47519;SDS011;33252;48.122;11.538;2023-02-28T09:48:03;22.33;;;13.13;;
47519;SDS011;33252;48.122;11.538;2023-02-28T09:50:52;26.00;;;13.50;;
47519;SDS011;33252;48.122;11.538;2023-02-28T09:53:26;23.23;;;15.52;;
47519;SDS011;33252;48.122;11.538;2023-02-28T09:58:53;22.25;;;14.02;;
47519;SDS011;33252;48.122;11.538;2023-02-28T10:06:46;19.25;;;12.98;;
47519;SDS011;33252;48.122;11.538;2023-02-28T10:11:45;24.42;;;12.93;;
47519;SDS011;33252;48.122;11.538;2023-02-28T10:14:16;23.27;;;13.88;;
47519;SDS011;33252;48.122;11.538;2023-02-28T10:19:40;24.92;;;14.85;;
47519;SDS011;33252;48.122;11.538;2023-02-28T10:22:28;23.58;;;14.25;;
47519;SDS011;33252;48.122;11.538;2023-02-28T10:25:26;20.02;;;13.65;;
47519;SDS011;33252;48.122;11.538;2023-02-28T10:28:14;24.58;;;14.38;;
47519;SDS011;33252;48.122;11.538;2023-02-28T10:30:45;20.00;;;13.95;;
47519;SDS011;33252;48.122;11.538;2023-02-28T10:33:32;24.45;;;14.00;;
47519;SDS011;33252;48.122;11.538;2023-02-28T10:36:00;23.83;;;14.95;;
47519;SDS011;33252;48.122;11.538;2023-02-28T10:38:28;23.50;;;14.43;;
47519;SDS011;33252;48.122;11.538;2023-02-28T10:43:39;22.90;;;14.43;;
47519;SDS011;33252;48.122;11.538;2023-02-28T10:48:42;22.10;;;12.88;;
47519;SDS011;33252;48.122;11.538;2023-02-28T10:51:11;21.83;;;12.25;;
47519;SDS011;33252;48.122;11.538;2023-02-28T10:53:52;24.20;;;14.18;;
47519;SDS011;33252;48.122;11.538;2023-02-28T10:56:20;22.38;;;12.93;;
47519;SDS011;33252;48.122;11.538;2023-02-28T11:01:52;21.13;;;15.05;;
47519;SDS011;33252;48.122;11.538;2023-02-28T11:09:49;20.13;;;13.07;;
47519;SDS011;33252;48.122;11.538;2023-02-28T11:12:27;24.25;;;13.10;;
47519;SDS011;33252;48.122;11.538;2023-02-28T11:14:59;24.35;;;13.13;;
47519;SDS011;33252;48.122;11.538;2023-02-28T11:17:32;18.92;;;13.13;;
47519;SDS011;33252;48.122;11.538;2023-02-28T11:20:03;21.48;;;12.82;;
47519;SDS011;33252;48.122;11.538;2023-02-28T11:22:32;25.35;;;13.52;;
47519;SDS011;33252;48.122;11.538;2023-02-28T11:25:06;21.02;;;13.15;;
47519;SDS011;33252;48.122;11.538;2023-02-28T11:31:34;27.08;;;13.60;;
47519;SDS011;33252;48.122;11.538;2023-02-28T11:38:52;18.02;;;12.70;;
47519;SDS011;33252;48.122;11.538;2023-02-28T11:44:19;18.98;;;13.40;;
47519;SDS011;33252;48.122;11.538;2023-02-28T11:46:50;19.98;;;12.60;;
47519;SDS011;33252;48.122;11.538;2023-02-28T11:49:25;22.63;;;13.45;;
47519;SDS011;33252;48.122;11.538;2023-02-28T11:57:14;21.57;;;13.63;;
47519;SDS011;33252;48.122;11.538;2023-02-28T11:59:49;18.55;;;12.55;;
47519;SDS011;33252;48.122;11.538;2023-02-28T12:14:16;19.23;;;13.57;;
47519;SDS011;33252;48.122;11.538;2023-02-28T12:28:10;18.70;;;12.60;;
47519;SDS011;33252;48.122;11.538;2023-02-28T12:30:39;21.60;;;14.63;;
47519;SDS011;33252;48.122;11.538;2023-02-28T12:33:12;17.40;;;13.18;;
47519;SDS011;33252;48.122;11.538;2023-02-28T12:35:47;19.00;;;13.63;;
47519;SDS011;33252;48.122;11.538;2023-02-28T12:41:00;20.10;;;11.68;;
47519;SDS011;33252;48.122;11.538;2023-02-28T12:43:37;20.10;;;12.75;;
47519;SDS011;33252;48.122;11.538;2023-02-28T12:46:09;21.00;;;12.65;;
47519;SDS011;33252;48.122;11.538;2023-02-28T12:48:52;19.60;;;12.75;;
47519;SDS011;33252;48.122;11.538;2023-02-28T12:51:21;20.38;;;12.77;;
47519;SDS011;33252;48.122;11.538;2023-02-28T12:56:38;17.20;;;12.68;;
47519;SDS011;33252;48.122;11.538;2023-02-28T12:59:22;15.55;;;11.45;;
47519;SDS011;33252;48.122;11.538;2023-02-28T13:10:07;16.23;;;11.93;;
47519;SDS011;33252;48.122;11.538;2023-02-28T13:12:34;14.32;;;10.90;;
47519;SDS011;33252;48.122;11.538;2023-02-28T13:17:31;12.88;;;10.30;;
47519;SDS011;33252;48.122;11.538;2023-02-28T13:19:58;18.40;;;11.75;;
47519;SDS011;33252;48.122;11.538;2023-02-28T13:27:58;15.63;;;10.35;;
47519;SDS011;33252;48.122;11.538;2023-02-28T13:35:48;18.75;;;12.23;;
47519;SDS011;33252;48.122;11.538;2023-02-28T13:38:32;15.60;;;11.90;;
47519;SDS011;33252;48.122;11.538;2023-02-28T13:46:31;21.02;;;12.57;;
47519;SDS011;33252;48.122;11.538;2023-02-28T14:05:26;17.77;;;11.43;;
47519;SDS011;33252;48.122;11.538;2023-02-28T14:07:56;17.45;;;12.32;;
47519;SDS011;33252;48.122;11.538;2023-02-28T14:13:01;17.73;;;11.40;;
47519;SDS011;33252;48.122;11.538;2023-02-28T14:18:04;19.88;;;13.15;;
47519;SDS011;33252;48.122;11.538;2023-02-28T14:20:40;16.42;;;10.40;;
47519;SDS011;33252;48.122;11.538;2023-02-28T14:31:54;16.38;;;11.05;;
47519;SDS011;33252;48.122;11.538;2023-02-28T14:34:31;15.32;;;10.70;;
47519;SDS011;33252;48.122;11.538;2023-02-28T14:37:15;17.95;;;11.30;;
47519;SDS011;33252;48.122;11.538;2023-02-28T14:39:55;14.98;;;10.45;;
47519;SDS011;33252;48.122;11.538;2023-02-28T14:42:39;14.80;;;10.75;;
47519;SDS011;33252;48.122;11.538;2023-02-28T14:45:17;13.50;;;9.50;;
47519;SDS011;33252;48.122;11.538;2023-02-28T14:47:45;14.20;;;10.13;;
47519;SDS011;33252;48.122;11.538;2023-02-28T14:50:18;13.07;;;9.88;;
47519;SDS011;33252;48.122;11.538;2023-02-28T14:52:46;19.50;;;10.95;;
47519;SDS011;33252;48.122;11.538;2023-02-28T14:55:17;16.63;;;10.73;;
47519;SDS011;33252;48.122;11.538;2023-02-28T14:57:58;14.35;;;10.27;;
47519;SDS011;33252;48.122;11.538;2023-02-28T15:00:35;16.42;;;10.60;;
47519;SDS011;33252;48.122;11.538;2023-02-28T15:05:53;13.45;;;10.27;;
47519;SDS011;33252;48.122;11.538;2023-02-28T15:08:24;16.33;;;9.98;;
47519;SDS011;33252;48.122;11.538;2023-02-28T15:11:07;16.05;;;10.93;;
47519;SDS011;33252;48.122;11.538;2023-02-28T15:13:53;15.45;;;10.48;;
47519;SDS011;33252;48.122;11.538;2023-02-28T15:16:25;15.45;;;10.40;;
47519;SDS011;33252;48.122;11.538;2023-02-28T15:21:55;17.55;;;10.73;;
47519;SDS011;33252;48.122;11.538;2023-02-28T15:24:45;18.00;;;11.05;;
47519;SDS011;33252;48.122;11.538;2023-02-28T15:27:16;16.05;;;11.00;;
47519;SDS011;33252;48.122;11.538;2023-02-28T15:29:53;18.92;;;10.82;;
47519;SDS011;33252;48.122;11.538;2023-02-28T15:32:26;18.42;;;10.70;;
47519;SDS011;33252;48.122;11.538;2023-02-28T15:34:57;17.75;;;10.98;;
47519;SDS011;33252;48.122;11.538;2023-02-28T15:43:07;17.38;;;10.38;;
47519;SDS011;33252;48.122;11.538;2023-02-28T15:45:50;14.45;;;11.00;;
47519;SDS011;33252;48.122;11.538;2023-02-28T15:48:25;14.05;;;9.77;;
47519;SDS011;33252;48.122;11.538;2023-02-28T15:50:57;14.90;;;10.98;;
47519;SDS011;33252;48.122;11.538;2023-02-28T15:53:36;16.42;;;10.70;;
47519;SDS011;33252;48.122;11.538;2023-02-28T15:56:18;17.88;;;10.73;;
47519;SDS011;33252;48.122;11.538;2023-02-28T15:58:50;21.80;;;12.88;;
47519;SDS011;33252;48.122;11.538;2023-02-28T16:01:29;18.67;;;10.40;;
47519;SDS011;33252;48.122;11.538;2023-02-28T16:03:59;18.27;;;11.50;;
47519;SDS011;33252;48.122;11.538;2023-02-28T16:09:10;17.77;;;10.38;;
47519;SDS011;33252;48.122;11.538;2023-02-28T16:11:39;19.95;;;11.80;;
47519;SDS011;33252;48.122;11.538;2023-02-28T16:14:23;19.65;;;11.40;;
47519;SDS011;33252;48.122;11.538;2023-02-28T16:16:53;17.17;;;9.73;;
47519;SDS011;33252;48.122;11.538;2023-02-28T16:19:21;19.30;;;11.00;;
47519;SDS011;33252;48.122;11.538;2023-02-28T16:21:47;16.83;;;11.07;;
47519;SDS011;33252;48.122;11.538;2023-02-28T16:24:13;20.63;;;10.95;;
47519;SDS011;33252;48.122;11.538;2023-02-28T16:26:39;14.65;;;10.07;;
47519;SDS011;33252;48.122;11.538;2023-02-28T16:29:08;19.75;;;10.82;;
47519;SDS011;33252;48.122;11.538;2023-02-28T16:31:40;18.00;;;11.40;;
47519;SDS011;33252;48.122;11.538;2023-02-28T16:34:05;18.00;;;10.93;;
47519;SDS011;33252;48.122;11.538;2023-02-28T16:36:31;22.67;;;10.57;;
47519;SDS011;33252;48.122;11.538;2023-02-28T16:38:57;18.25;;;10.68;;
47519;SDS011;33252;48.122;11.538;2023-02-28T16:41:26;19.35;;;11.30;;
47519;SDS011;33252;48.122;11.538;2023-02-28T16:43:53;20.45;;;10.30;;
47519;SDS011;33252;48.122;11.538;2023-02-28T16:46:27;17.67;;;10.90;;
47519;SDS011;33252;48.122;11.538;2023-02-28T16:48:59;18.30;;;10.90;;
47519;SDS011;33252;48.122;11.538;2023-02-28T16:51:25;14.88;;;10.25;;
47519;SDS011;33252;48.122;11.538;2023-02-28T16:53:51;23.33;;;12.10;;
47519;SDS011;33252;48.122;11.538;2023-02-28T16:56:20;17.77;;;10.75;;
47519;SDS011;33252;48.122;11.538;2023-02-28T16:58:48;18.45;;;12.00;;
47519;SDS011;33252;48.122;11.538;2023-02-28T17:01:14;17.25;;;10.82;;
47519;SDS011;33252;48.122;11.538;2023-02-28T17:03:41;20.33;;;11.85;;
47519;SDS011;33252;48.122;11.538;2023-02-28T17:06:17;20.17;;;12.15;;
47519;SDS011;33252;48.122;11.538;2023-02-28T17:08:46;18.85;;;11.27;;
47519;SDS011;33252;48.122;11.538;2023-02-28T17:11:13;17.13;;;11.43;;
47519;SDS011;33252;48.122;11.538;2023-02-28T17:13:39;26.13;;;12.85;;
47519;SDS011;33252;48.122;11.538;2023-02-28T17:16:04;21.05;;;13.23;;
47519;SDS011;33252;48.122;11.538;2023-02-28T17:18:30;23.85;;;12.02;;
47519;SDS011;33252;48.122;11.538;2023-02-28T17:20:59;19.20;;;11.15;;
47519;SDS011;33252;48.122;11.538;2023-02-28T17:23:25;19.42;;;11.07;;
47519;SDS011;33252;48.122;11.538;2023-02-28T17:25:51;19.83;;;11.45;;
47519;SDS011;33252;48.122;11.538;2023-02-28T17:28:20;21.08;;;11.57;;